Time;durP1;ratioP1;P1;durP2;ratioP2;P2;SDS_P1;SDS_P2;PMS_P1;PMS_P2;Temp;Humidity;BMP_temperature;BMP_pressure;BME280_temperature;BME280_humidity;BME280_pressure;Samples;Min_cycle;Max_cycle;Signal;HPM_P1;HPM_P2
2021/10/14 00:02:18;;;;;;;10.57;8.40;;;;;;;6.92;100.00;97267.34;5027616;28;20061;-59
2021/10/14 00:04:47;;;;;;;10.80;7.97;;;;;;;6.58;100.00;97267.78;5024329;28;20464;-59
2021/10/14 00:07:15;;;;;;;11.20;8.05;;;;;;;6.83;100.00;97268.81;5032828;28;20075;-59
2021/10/14 00:09:44;;;;;;;10.88;7.53;;;;;;;7.09;100.00;97264.44;5030238;28;20310;-59
2021/10/14 00:12:12;;;;;;;14.15;7.93;;;;;;;7.11;100.00;97270.41;5024561;28;20084;-59
2021/10/14 00:14:41;;;;;;;10.15;7.38;;;;;;;7.16;100.00;97278.81;5044838;28;20072;-60
2021/10/14 00:17:11;;;;;;;10.98;7.65;;;;;;;7.21;100.00;97278.50;5046792;28;20041;-59
2021/10/14 00:19:40;;;;;;;10.07;7.60;;;;;;;7.27;100.00;97268.44;5034503;28;20156;-59
2021/10/14 00:22:09;;;;;;;14.20;8.32;;;;;;;7.03;100.00;97265.69;5016723;28;20057;-60
2021/10/14 00:24:37;;;;;;;10.85;7.95;;;;;;;7.26;100.00;97255.41;5023620;28;20056;-59
2021/10/14 00:27:06;;;;;;;11.57;8.15;;;;;;;6.93;100.00;97262.00;5045048;28;20183;-60
2021/10/14 00:29:34;;;;;;;10.50;8.50;;;;;;;7.20;100.00;97264.56;5038937;28;20548;-58
2021/10/14 00:32:03;;;;;;;10.50;8.20;;;;;;;7.24;100.00;97259.94;5025510;28;20065;-59
2021/10/14 00:34:32;;;;;;;12.35;8.50;;;;;;;7.00;100.00;97255.41;5040195;28;20069;-59
2021/10/14 00:37:01;;;;;;;11.93;8.35;;;;;;;6.90;100.00;97264.81;5041281;28;20696;-59
2021/10/14 00:39:29;;;;;;;10.57;7.93;;;;;;;7.07;100.00;97258.47;5026438;28;20071;-60
2021/10/14 00:41:58;;;;;;;10.32;8.20;;;;;;;6.92;100.00;97260.34;5049020;28;20064;-60
2021/10/14 00:44:26;;;;;;;9.93;8.23;;;;;;;7.00;100.00;97262.44;5044202;28;20069;-59
2021/10/14 00:46:56;;;;;;;10.05;8.00;;;;;;;6.96;100.00;97263.59;5040642;28;20068;-59
2021/10/14 00:49:25;;;;;;;11.57;8.47;;;;;;;6.90;100.00;97265.66;5041795;28;20068;-60
2021/10/14 00:51:55;;;;;;;10.63;8.20;;;;;;;7.19;100.00;97256.78;5037078;28;20057;-58
2021/10/14 00:54:23;;;;;;;12.15;8.10;;;;;;;7.27;100.00;97251.88;5026038;28;20151;-59
2021/10/14 00:56:52;;;;;;;11.63;8.30;;;;;;;7.24;100.00;97252.06;5027252;28;20065;-59
2021/10/14 00:59:20;;;;;;;10.63;8.15;;;;;;;7.07;100.00;97253.22;5042688;28;20061;-58
2021/10/14 01:01:49;;;;;;;10.93;8.48;;;;;;;7.19;100.00;97262.88;5029786;28;20065;-59
2021/10/14 01:04:18;;;;;;;12.55;8.13;;;;;;;7.16;100.00;97251.72;5045023;28;20075;-60
2021/10/14 01:06:46;;;;;;;10.82;8.43;;;;;;;7.06;100.00;97262.03;5034907;28;20057;-59
2021/10/14 01:09:16;;;;;;;13.32;8.13;;;;;;;6.69;100.00;97264.47;5022751;28;20100;-61
2021/10/14 01:11:44;;;;;;;10.93;8.25;;;;;;;7.02;100.00;97266.66;5022457;28;20071;-61
2021/10/14 01:14:13;;;;;;;10.10;7.47;;;;;;;6.87;100.00;97262.41;5027311;28;20065;-59
2021/10/14 01:16:42;;;;;;;11.13;8.13;;;;;;;7.01;100.00;97264.09;5026038;28;20057;-60
2021/10/14 01:19:12;;;;;;;10.60;8.27;;;;;;;7.00;100.00;97257.19;5023890;28;20065;-58
2021/10/14 01:21:42;;;;;;;13.48;8.40;;;;;;;6.89;100.00;97257.91;5022099;28;20083;-60
2021/10/14 01:24:11;;;;;;;12.30;8.45;;;;;;;6.68;100.00;97257.56;5037624;28;20076;-60
2021/10/14 01:26:40;;;;;;;10.35;6.80;;;;;;;6.63;100.00;97259.63;5038348;28;20076;-60
2021/10/14 01:29:09;;;;;;;11.35;8.55;;;;;;;6.79;100.00;97252.44;5043029;28;20097;-60
2021/10/14 01:31:39;;;;;;;12.50;7.60;;;;;;;6.62;100.00;97258.78;5037988;28;20449;-60
2021/10/14 01:34:07;;;;;;;9.80;8.18;;;;;;;6.69;100.00;97259.22;5046104;28;20076;-60
2021/10/14 01:36:36;;;;;;;10.02;8.18;;;;;;;6.72;100.00;97253.78;5035280;28;20073;-61
2021/10/14 01:39:06;;;;;;;10.70;7.65;;;;;;;6.62;100.00;97258.78;5036414;28;20122;-60
2021/10/14 01:41:35;;;;;;;9.95;7.28;;;;;;;6.72;100.00;97260.81;5047279;28;20076;-59
2021/10/14 01:44:04;;;;;;;10.55;7.75;;;;;;;6.65;100.00;97257.75;5030169;28;20074;-59
2021/10/14 01:46:32;;;;;;;11.18;8.38;;;;;;;6.39;100.00;97252.41;5020293;28;20074;-58
2021/10/14 01:49:01;;;;;;;11.10;7.90;;;;;;;6.56;100.00;97253.94;5017946;28;20438;-59
2021/10/14 01:51:29;;;;;;;14.95;8.15;;;;;;;6.42;100.00;97262.69;5027132;28;20065;-60
2021/10/14 01:53:58;;;;;;;12.48;8.23;;;;;;;6.55;100.00;97259.28;5028285;28;20061;-59
2021/10/14 01:56:28;;;;;;;10.52;7.72;;;;;;;6.43;100.00;97258.28;5033774;28;20069;-59
2021/10/14 01:58:56;;;;;;;12.95;8.00;;;;;;;6.55;100.00;97251.44;5041587;28;20288;-59
2021/10/14 02:01:24;;;;;;;13.95;8.45;;;;;;;6.65;100.00;97250.72;5041190;28;20072;-59
2021/10/14 02:03:53;;;;;;;13.35;8.93;;;;;;;6.61;100.00;97249.25;5034225;28;20072;-59
2021/10/14 02:06:22;;;;;;;13.68;8.13;;;;;;;6.46;100.00;97249.41;5025007;28;20452;-59
2021/10/14 02:08:50;;;;;;;12.32;9.55;;;;;;;6.69;100.00;97248.75;5022844;28;20464;-59
2021/10/14 02:11:19;;;;;;;13.43;9.18;;;;;;;6.76;100.00;97250.00;5043029;28;20068;-59
2021/10/14 02:13:49;;;;;;;13.43;8.90;;;;;;;6.37;100.00;97259.53;5027455;28;20061;-59
2021/10/14 02:16:17;;;;;;;12.57;9.00;;;;;;;6.70;100.00;97253.03;5015648;28;20084;-59
2021/10/14 02:18:46;;;;;;;16.23;9.27;;;;;;;6.77;100.00;97256.09;5023192;28;20065;-58
2021/10/14 02:21:16;;;;;;;12.70;8.68;;;;;;;6.67;100.00;97258.47;5025692;28;20081;-58
2021/10/14 02:23:44;;;;;;;10.80;8.80;;;;;;;6.55;100.00;97260.13;5020105;28;20084;-59
2021/10/14 02:26:13;;;;;;;13.48;9.25;;;;;;;6.76;100.00;97252.63;5025922;28;20077;-60
2021/10/14 02:28:41;;;;;;;12.93;9.27;;;;;;;6.51;100.00;97255.19;5020311;28;20430;-58
2021/10/14 02:31:11;;;;;;;12.90;8.68;;;;;;;6.87;100.00;97251.91;5022727;28;20073;-58
2021/10/14 02:33:40;;;;;;;13.98;9.55;;;;;;;6.76;100.00;97246.56;5023215;28;20081;-59
2021/10/14 02:36:08;;;;;;;13.13;8.88;;;;;;;6.62;100.00;97250.91;5033291;28;20108;-59
2021/10/14 02:38:37;;;;;;;14.63;9.48;;;;;;;6.74;100.00;97244.00;5028934;28;20080;-59
2021/10/14 02:41:06;;;;;;;13.65;9.45;;;;;;;6.63;100.00;97249.13;5025172;28;20460;-58
2021/10/14 02:43:34;;;;;;;17.10;9.65;;;;;;;6.47;100.00;97248.44;5031198;28;20092;-60
2021/10/14 02:46:03;;;;;;;14.10;9.38;;;;;;;6.73;100.00;97250.22;5036727;28;20069;-57
2021/10/14 02:48:33;;;;;;;13.75;9.52;;;;;;;6.88;100.00;97254.47;5024727;28;20080;-60
2021/10/14 02:51:01;;;;;;;13.70;9.57;;;;;;;7.02;100.00;97250.91;5027656;28;20529;-59
2021/10/14 02:53:30;;;;;;;16.08;9.93;;;;;;;7.07;100.00;97248.81;5020549;28;20061;-58
2021/10/14 02:55:58;;;;;;;14.13;9.68;;;;;;;6.58;100.00;97244.22;5020242;28;20501;-59
2021/10/14 02:58:27;;;;;;;14.32;9.40;;;;;;;6.96;100.00;97247.84;5022641;28;20544;-60
2021/10/14 03:00:55;;;;;;;14.90;9.80;;;;;;;6.49;100.00;97249.19;5023866;28;20057;-59
2021/10/14 03:03:25;;;;;;;17.40;9.75;;;;;;;6.66;100.00;97251.56;5022187;28;20069;-60
2021/10/14 03:05:54;;;;;;;14.68;9.95;;;;;;;6.69;100.00;97258.38;5028907;28;20080;-59
2021/10/14 03:08:23;;;;;;;15.10;9.70;;;;;;;6.93;100.00;97256.75;5030674;28;20080;-59
2021/10/14 03:10:52;;;;;;;12.80;9.25;;;;;;;7.07;100.00;97261.91;5041102;28;20504;-59
2021/10/14 03:13:20;;;;;;;17.58;10.13;;;;;;;7.08;100.00;97258.34;5045075;28;20492;-60
2021/10/14 03:15:49;;;;;;;14.57;9.38;;;;;;;6.62;100.00;97257.94;5039049;28;20524;-59
2021/10/14 03:18:17;;;;;;;15.38;9.65;;;;;;;6.86;100.00;97255.50;5019104;28;20072;-60
2021/10/14 03:20:46;;;;;;;14.18;9.82;;;;;;;7.16;100.00;97257.84;5027436;28;20528;-59
2021/10/14 03:23:16;;;;;;;14.88;9.70;;;;;;;6.93;100.00;97259.38;5014354;28;20069;-59
2021/10/14 03:25:44;;;;;;;14.93;9.30;;;;;;;7.10;100.00;97276.63;5020047;28;20077;-56
2021/10/14 03:28:13;;;;;;;14.32;10.27;;;;;;;6.83;100.00;97263.56;5036861;28;20643;-59
2021/10/14 03:30:41;;;;;;;13.50;10.13;;;;;;;6.75;100.00;97256.19;5035953;28;20543;-58
2021/10/14 03:33:10;;;;;;;14.38;10.13;;;;;;;7.07;100.00;97255.84;5017602;28;20065;-58
2021/10/14 03:35:39;;;;;;;15.15;9.32;;;;;;;7.00;100.00;97249.31;5025669;28;20045;-58
2021/10/14 03:38:07;;;;;;;14.48;9.55;;;;;;;7.32;100.00;97253.22;5021755;28;20077;-59
2021/10/14 03:40:37;;;;;;;16.80;10.32;;;;;;;6.80;100.00;97243.63;5023844;28;20069;-60
2021/10/14 03:43:06;;;;;;;14.85;10.75;;;;;;;6.78;100.00;97242.03;5017534;28;20485;-61
2021/10/14 03:45:34;;;;;;;16.63;10.98;;;;;;;7.38;100.00;97252.78;5026140;28;20076;-59
2021/10/14 03:48:03;;;;;;;16.38;10.60;;;;;;;6.96;100.00;97253.09;5042936;28;20079;-60
2021/10/14 03:50:32;;;;;;;16.50;10.82;;;;;;;7.10;100.00;97256.47;5045360;28;21393;-59
2021/10/14 03:53:00;;;;;;;17.73;11.15;;;;;;;6.70;100.00;97253.03;5057127;28;20057;-60
2021/10/14 03:55:29;;;;;;;20.08;12.15;;;;;;;7.19;100.00;97251.53;5029743;28;20631;-60
2021/10/14 03:57:59;;;;;;;21.60;13.80;;;;;;;7.28;100.00;97253.53;5024230;28;20441;-60
2021/10/14 04:00:27;;;;;;;22.92;12.65;;;;;;;6.74;100.00;97258.91;5019809;28;20661;-60
2021/10/14 04:02:56;;;;;;;26.45;12.95;;;;;;;6.87;100.00;97252.75;5016430;28;20077;-61
2021/10/14 04:05:25;;;;;;;21.88;13.15;;;;;;;6.69;100.00;97264.47;5013991;28;20061;-61
2021/10/14 04:07:53;;;;;;;22.13;12.25;;;;;;;6.53;100.00;97277.72;5043124;28;20068;-60
2021/10/14 04:10:22;;;;;;;23.90;13.68;;;;;;;6.61;100.00;97279.88;5044522;28;20064;-61
2021/10/14 04:12:50;;;;;;;22.92;12.68;;;;;;;6.71;100.00;97280.06;5041694;28;20072;-60
2021/10/14 04:15:20;;;;;;;19.95;12.93;;;;;;;6.77;100.00;97269.19;5033104;28;20429;-59
2021/10/14 04:17:49;;;;;;;19.85;12.43;;;;;;;6.68;100.00;97264.59;5052272;28;20103;-61
2021/10/14 04:20:17;;;;;;;21.77;13.23;;;;;;;6.98;100.00;97266.94;5037346;28;20068;-61
2021/10/14 04:22:46;;;;;;;23.40;13.73;;;;;;;7.10;100.00;97258.25;5035258;28;20172;-59
2021/10/14 04:25:14;;;;;;;23.25;14.60;;;;;;;7.28;100.00;97253.53;5047164;28;20075;-60
2021/10/14 04:27:43;;;;;;;24.13;13.77;;;;;;;6.71;100.00;97259.97;5041116;28;20067;-60
2021/10/14 04:30:11;;;;;;;24.55;14.77;;;;;;;7.06;100.00;97268.13;5049034;28;20064;-61
2021/10/14 04:32:42;;;;;;;26.90;14.40;;;;;;;7.30;100.00;97260.38;5051210;28;20084;-61
2021/10/14 04:35:11;;;;;;;26.25;15.00;;;;;;;7.26;100.00;97263.28;5047615;28;20080;-60
2021/10/14 04:37:41;;;;;;;23.65;15.20;;;;;;;7.10;100.00;97264.34;5031469;28;20077;-60
2021/10/14 04:40:11;;;;;;;23.30;13.77;;;;;;;7.24;100.00;97271.28;5050866;28;20076;-60
2021/10/14 04:42:42;;;;;;;27.27;14.63;;;;;;;7.23;100.00;97253.88;5042969;28;20060;-61
2021/10/14 04:45:10;;;;;;;23.23;13.80;;;;;;;7.19;100.00;97256.78;5051228;28;20064;-60
2021/10/14 04:47:39;;;;;;;21.15;13.35;;;;;;;7.32;100.00;97266.34;5017527;28;20077;-61
2021/10/14 04:50:09;;;;;;;21.13;12.88;;;;;;;7.59;100.00;97265.38;5043159;28;20060;-61
2021/10/14 04:52:38;;;;;;;23.75;13.18;;;;;;;7.06;100.00;97275.16;5048673;28;20056;-61
2021/10/14 04:55:07;;;;;;;18.98;11.48;;;;;;;7.11;100.00;97273.88;5049233;28;20061;-60
2021/10/14 04:57:36;;;;;;;21.45;13.23;;;;;;;7.28;100.00;97271.91;5042263;28;20337;-60
2021/10/14 05:00:05;;;;;;;21.23;10.10;;;;;;;7.41;100.00;97271.91;5036212;28;20083;-60
2021/10/14 05:02:34;;;;;;;19.33;11.23;;;;;;;7.25;100.00;97275.56;5059827;28;20077;-60
2021/10/14 05:05:03;;;;;;;21.35;12.45;;;;;;;7.11;100.00;97273.03;5055136;28;20139;-61
2021/10/14 05:07:32;;;;;;;20.30;12.13;;;;;;;7.12;100.00;97269.47;5048442;28;20084;-61
2021/10/14 05:10:01;;;;;;;18.95;11.45;;;;;;;7.13;100.00;97265.91;5047816;28;20072;-61
2021/10/14 05:12:29;;;;;;;19.65;11.88;;;;;;;7.15;100.00;97269.25;5038144;28;20068;-61
2021/10/14 05:14:58;;;;;;;19.13;12.20;;;;;;;6.92;100.00;97273.44;5055598;28;20563;-62
2021/10/14 05:17:26;;;;;;;17.05;11.38;;;;;;;7.26;100.00;97281.66;5038491;28;20072;-61
2021/10/14 05:19:55;;;;;;;18.23;11.73;;;;;;;7.07;100.00;97280.28;5041642;28;20448;-61
2021/10/14 05:22:23;;;;;;;19.70;11.68;;;;;;;7.32;100.00;97283.88;5048236;28;20068;-59
2021/10/14 05:24:53;;;;;;;18.15;11.85;;;;;;;7.41;100.00;97282.41;5048107;28;20099;-57
2021/10/14 05:27:21;;;;;;;18.95;11.35;;;;;;;7.06;100.00;97286.47;5045273;28;20061;-61
2021/10/14 05:29:50;;;;;;;20.08;11.85;;;;;;;7.25;100.00;97293.09;5044713;28;20077;-60
2021/10/14 05:32:18;;;;;;;19.45;11.55;;;;;;;7.21;100.00;97292.47;5038047;28;20087;-60
2021/10/14 05:34:47;;;;;;;21.77;12.57;;;;;;;7.63;100.00;97287.84;5041804;28;20065;-60
2021/10/14 05:37:15;;;;;;;17.00;11.70;;;;;;;7.65;100.00;97285.97;5035589;28;20076;-60
2021/10/14 05:39:44;;;;;;;21.50;12.98;;;;;;;7.46;100.00;97288.16;5045119;28;20435;-60
2021/10/14 05:42:13;;;;;;;19.27;12.48;;;;;;;7.48;100.00;97286.28;5048237;28;20083;-60
2021/10/14 05:44:42;;;;;;;19.45;12.43;;;;;;;7.63;100.00;97289.63;5049700;28;20080;-61
2021/10/14 05:47:11;;;;;;;18.95;11.82;;;;;;;7.30;100.00;97289.22;5019877;28;20077;-60
2021/10/14 05:49:39;;;;;;;17.50;11.82;;;;;;;7.42;100.00;97295.41;5036336;28;20072;-61
2021/10/14 05:52:08;;;;;;;19.98;12.32;;;;;;;7.61;100.00;97289.75;5040705;28;20489;-60
2021/10/14 05:54:36;;;;;;;19.00;12.05;;;;;;;7.89;100.00;97286.06;5038561;28;20057;-61
2021/10/14 05:57:04;;;;;;;19.67;11.68;;;;;;;7.76;100.00;97287.84;5041119;28;20080;-59
2021/10/14 05:59:34;;;;;;;17.88;12.52;;;;;;;7.92;100.00;97296.34;5053326;28;20080;-61
2021/10/14 06:02:03;;;;;;;18.95;12.55;;;;;;;7.89;100.00;97290.47;5040702;28;20052;-60
2021/10/14 06:04:31;;;;;;;23.23;12.23;;;;;;;8.07;100.00;97297.88;5047858;28;20071;-59
2021/10/14 06:07:00;;;;;;;18.17;12.30;;;;;;;7.99;100.00;97287.09;5047131;28;20041;-57
2021/10/14 06:09:28;;;;;;;19.17;12.13;;;;;;;8.32;100.00;97291.72;5048455;28;20434;-62
2021/10/14 06:11:57;;;;;;;20.60;12.90;;;;;;;8.29;100.00;97294.59;5050299;28;20080;-61
2021/10/14 06:14:25;;;;;;;19.38;12.23;;;;;;;8.30;100.00;97304.13;5041343;28;20512;-60
2021/10/14 06:16:55;;;;;;;25.73;12.70;;;;;;;8.49;100.00;97303.66;5038268;28;20088;-61
2021/10/14 06:19:24;;;;;;;22.63;13.98;;;;;;;8.36;100.00;97307.25;5046012;28;20067;-61
2021/10/14 06:21:52;;;;;;;20.23;12.88;;;;;;;8.42;100.00;97301.59;5048138;28;20452;-61
2021/10/14 06:24:21;;;;;;;20.65;12.95;;;;;;;8.47;100.00;97299.50;5038616;28;20072;-61
2021/10/14 06:26:49;;;;;;;22.83;13.18;;;;;;;8.50;100.00;97309.78;5036909;28;20103;-60
2021/10/14 06:29:18;;;;;;;20.30;13.25;;;;;;;8.43;100.00;97316.41;5047158;28;20557;-61
2021/10/14 06:31:46;;;;;;;20.27;12.38;;;;;;;8.53;100.00;97320.91;5038337;28;20053;-59
2021/10/14 06:34:17;;;;;;;22.02;13.02;;;;;;;8.66;100.00;97323.47;5049932;28;20068;-58
2021/10/14 06:36:45;;;;;;;;;;;;;;;9.12;100.00;97320.13;5027668;28;20158;-59
2021/10/14 06:39:13;;;;;;;18.67;12.23;;;;;;;9.39;100.00;97319.81;5043629;28;19940;-58
2021/10/14 06:41:42;;;;;;;22.38;12.50;;;;;;;9.56;100.00;97318.53;5049606;28;20351;-60
2021/10/14 06:44:11;;;;;;;19.40;12.70;;;;;;;8.77;100.00;97320.06;5029611;28;20064;-60
2021/10/14 06:46:39;;;;;;;17.73;12.27;;;;;;;8.99;100.00;97320.19;5045531;28;20069;-61
2021/10/14 06:49:08;;;;;;;23.13;13.07;;;;;;;9.00;100.00;97323.66;5031740;28;20072;-60
2021/10/14 06:51:37;;;;;;;18.95;12.80;;;;;;;8.72;100.00;97330.94;5025113;28;20053;-61
2021/10/14 06:54:12;;;;;;;20.65;12.68;;;;;;;8.70;100.00;97334.63;5046904;28;20092;-61
2021/10/14 06:56:40;;;;;;;17.65;12.18;;;;;;;8.90;100.00;97333.16;5049079;28;20081;-61
2021/10/14 06:59:09;;;;;;;18.67;11.45;;;;;;;8.69;100.00;97328.53;5040118;28;20069;-60
2021/10/14 07:01:37;;;;;;;19.67;12.32;;;;;;;9.41;100.00;97328.44;5047003;28;20064;-60
2021/10/14 07:04:06;;;;;;;19.25;11.82;;;;;;;9.57;100.00;97328.13;5046774;28;20060;-60
2021/10/14 07:06:34;;;;;;;18.95;12.10;;;;;;;9.45;100.00;97332.53;5050203;28;20512;-61
2021/10/14 07:09:04;;;;;;;19.92;12.20;;;;;;;9.35;100.00;97313.09;5045727;28;20075;-58
2021/10/14 07:11:40;;;;;;;19.58;13.18;;;;;;;9.67;100.00;97317.72;5044639;28;21278;-60
2021/10/14 07:14:09;;;;;;;18.63;11.88;;;;;;;10.21;100.00;97312.56;5029267;28;20072;-61
2021/10/14 07:16:38;;;;;;;19.67;11.93;;;;;;;10.50;100.00;97316.53;5041869;28;20645;-61
2021/10/14 07:19:06;;;;;;;19.40;11.85;;;;;;;9.62;100.00;97328.59;5046030;28;20053;-59
2021/10/14 07:21:35;;;;;;;20.67;12.30;;;;;;;10.32;100.00;97313.56;5037715;28;20060;-59
2021/10/14 07:24:05;;;;;;;17.40;12.27;;;;;;;10.55;100.00;97303.81;5042862;28;20077;-58
2021/10/14 07:26:34;;;;;;;18.67;12.13;;;;;;;10.15;100.00;97302.53;5044747;28;20073;-60
2021/10/14 07:29:04;;;;;;;17.48;11.80;;;;;;;10.06;100.00;97305.88;5039690;28;20069;-59
2021/10/14 07:31:33;;;;;;;18.40;11.27;;;;;;;10.54;100.00;97302.97;5039061;28;20072;-61
2021/10/14 07:34:01;;;;;;;17.00;11.95;;;;;;;10.31;100.00;97303.97;5040999;28;20505;-60
2021/10/14 07:36:30;;;;;;;18.23;12.25;;;;;;;10.40;100.00;97305.88;5032456;28;20521;-60
2021/10/14 07:39:01;;;;;;;18.17;12.15;;;;;;;10.95;100.00;97316.41;5029713;28;20089;-60
2021/10/14 07:41:31;;;;;;;17.25;11.73;;;;;;;11.12;100.00;97308.78;5042507;28;20295;-60
2021/10/14 07:44:00;;;;;;;15.35;10.52;;;;;;;10.01;100.00;97318.56;5027582;28;20547;-60
2021/10/14 07:46:29;;;;;;;15.50;10.68;;;;;;;10.11;100.00;97318.69;5030622;28;20676;-61
2021/10/14 07:48:58;;;;;;;15.65;10.75;;;;;;;9.80;100.00;97322.88;5037802;28;20119;-61
2021/10/14 07:51:26;;;;;;;15.70;9.90;;;;;;;10.06;100.00;97315.59;5051052;28;20068;-61
2021/10/14 07:53:55;;;;;;;15.23;10.48;;;;;;;10.44;100.00;97313.41;5052212;28;20104;-61
2021/10/14 07:56:24;;;;;;;16.20;10.30;;;;;;;9.99;100.00;97323.13;5041143;28;20069;-59
2021/10/14 07:58:53;;;;;;;14.40;10.30;;;;;;;10.10;100.00;97327.56;5028892;28;20201;-61
2021/10/14 08:01:22;;;;;;;14.93;10.45;;;;;;;10.14;100.00;97326.38;5018984;28;20074;-60
2021/10/14 08:03:51;;;;;;;16.02;10.05;;;;;;;10.08;100.00;97324.19;5036273;28;20064;-60
2021/10/14 08:06:19;;;;;;;13.18;8.38;;;;;;;10.09;100.00;97320.63;5050174;28;20099;-60
2021/10/14 08:08:48;;;;;;;13.15;9.35;;;;;;;10.64;100.00;97327.66;5052262;28;20084;-60
2021/10/14 08:11:16;;;;;;;15.40;9.32;;;;;;;10.78;100.00;97320.41;5021711;28;20088;-59
2021/10/14 08:13:45;;;;;;;14.68;8.73;;;;;;;10.60;100.00;97323.59;5023967;28;20077;-60
2021/10/14 08:16:15;;;;;;;15.52;8.52;;;;;;;10.44;100.00;97316.06;5034700;28;20489;-61
2021/10/14 08:18:43;;;;;;;0.20;0.20;;;;;;;10.13;100.00;97325.53;5028163;28;20671;-61
2021/10/14 08:21:11;;;;;;;3.33;0.20;;;;;;;10.32;100.00;97329.38;5024974;28;20073;-61
2021/10/14 08:23:40;;;;;;;0.20;0.20;;;;;;;9.99;100.00;97326.59;5030992;28;20092;-62
2021/10/14 08:26:09;;;;;;;0.20;0.20;;;;;;;10.47;100.00;97322.06;5050342;28;20064;-61
2021/10/14 08:28:37;;;;;;;0.20;0.20;;;;;;;10.22;100.00;97329.25;5049947;28;20080;-61
2021/10/14 08:31:06;;;;;;;0.17;0.17;;;;;;;10.99;100.00;97329.22;5051867;28;20068;-61
2021/10/14 08:33:36;;;;;;;0.20;0.20;;;;;;;10.73;100.00;97322.59;5039102;28;20072;-59
2021/10/14 08:36:06;;;;;;;0.20;0.20;;;;;;;11.51;100.00;97324.88;5049963;28;20084;-61
2021/10/14 08:38:35;;;;;;;13.32;7.45;;;;;;;10.89;100.00;97323.03;5050223;28;20090;-60
2021/10/14 08:41:03;;;;;;;17.90;15.50;;;;;;;11.29;100.00;97323.22;5048419;28;20081;-62
2021/10/14 08:43:36;;;;;;;0.63;0.63;;;;;;;11.54;100.00;97316.72;5038875;28;20068;-66
2021/10/14 08:46:04;;;;;;;0.23;0.23;;;;;;;10.62;100.00;97331.38;5043845;28;20075;-62
2021/10/14 08:48:33;;;;;;;0.20;0.20;;;;;;;10.71;100.00;97329.81;5042779;28;20536;-61
2021/10/14 08:51:03;;;;;;;0.20;0.20;;;;;;;10.93;100.00;97327.06;5043933;28;20081;-60
2021/10/14 08:53:31;;;;;;;0.40;0.40;;;;;;;11.30;100.00;97324.88;5043569;28;20199;-61
2021/10/14 08:56:00;;;;;;;0.20;0.20;;;;;;;10.89;100.00;97329.13;5045786;28;20077;-61
2021/10/14 08:58:28;;;;;;;0.40;0.40;;;;;;;10.89;100.00;97310.66;5049030;28;20069;-61
2021/10/14 09:01:08;;;;;;;0.20;0.20;;;;;;;11.53;100.00;97322.97;5042590;28;20547;-60
2021/10/14 09:03:43;;;;;;;0.40;0.40;;;;;;;11.15;100.00;97313.81;5048519;28;20064;-60
2021/10/14 09:06:14;;;;;;;0.30;0.30;;;;;;;11.10;100.00;97315.13;5046483;28;20487;-60
2021/10/14 09:08:43;;;;;;;;;;;;;;;10.78;100.00;97308.06;5025482;28;20552;-60
2021/10/14 09:11:13;;;;;;;0.30;0.30;;;;;;;11.52;100.00;97313.34;5037747;28;19960;-60
2021/10/14 09:13:47;;;;;;;0.93;0.93;;;;;;;11.72;100.00;97305.53;5043220;28;20079;-60
2021/10/14 09:16:27;;;;;;;1.57;1.47;;;;;;;11.50;100.00;97306.53;5038322;28;20076;-61
2021/10/14 09:18:56;;;;;;;;;;;;;;;11.31;100.00;97309.88;5036169;28;20071;-61
2021/10/14 09:21:28;;;;;;;0.70;0.70;;;;;;;11.13;100.00;97307.81;5040174;28;19960;-61
2021/10/14 09:23:58;;;;;;;0.43;0.43;;;;;;;11.35;100.00;97301.56;5043754;28;20081;-61
2021/10/14 09:26:32;;;;;;;0.40;0.40;;;;;;;11.99;100.00;97302.38;5048611;28;20068;-61
2021/10/14 09:29:09;;;;;;;0.33;0.33;;;;;;;12.34;100.00;97299.28;5048197;28;20076;-62
2021/10/14 09:31:48;;;;;;;0.50;0.50;;;;;;;12.03;100.00;97307.25;5029200;28;20069;-60
2021/10/14 09:34:39;;;;;;;0.97;0.97;;;;;;;11.94;100.00;97307.19;5022013;28;20084;-58
2021/10/14 09:37:32;;;;;;;0.55;0.55;;;;;;;12.06;100.00;97304.34;5023896;28;20081;-61
2021/10/14 09:40:04;;;;;;;1.10;1.07;;;;;;;12.20;100.00;97297.84;5025399;28;20068;-59
2021/10/14 09:42:50;;;;;;;1.03;1.00;;;;;;;12.01;100.00;97305.69;5044676;28;20081;-60
2021/10/14 09:45:24;;;;;;;0.43;0.43;;;;;;;11.77;100.00;97298.91;5049514;28;20077;-60
2021/10/14 09:48:11;;;;;;;2.20;2.10;;;;;;;12.34;100.00;97294.84;5051219;28;20049;-62
2021/10/14 09:50:42;;;;;;;0.50;0.50;;;;;;;12.03;100.00;97299.31;5045204;28;20395;-61
2021/10/14 09:53:14;;;;;;;0.70;0.70;;;;;;;12.29;100.00;97297.06;5030285;28;20061;-61
2021/10/14 09:55:43;;;;;;;1.50;1.43;;;;;;;12.83;100.00;97286.97;5032141;28;20092;-60
2021/10/14 09:58:11;;;;;;;2.40;2.27;;;;;;;12.11;100.00;97296.00;5030776;28;20065;-60
2021/10/14 10:00:41;;;;;;;2.17;2.03;;;;;;;12.04;100.00;97298.38;5037637;28;20069;-62
2021/10/14 10:03:11;;;;;;;6.33;5.87;;;;;;;12.40;100.00;97298.75;5021889;28;20494;-62
2021/10/14 10:05:40;;;;;;;2.92;2.72;;;;;;;11.99;100.00;97299.72;5050372;28;20080;-61
2021/10/14 10:08:10;;;;;;;3.30;3.07;;;;;;;12.05;100.00;97301.84;5047243;28;20513;-61
2021/10/14 10:10:44;;;;;;;1.77;1.67;;;;;;;11.93;100.00;97303.72;5048189;28;20064;-61
2021/10/14 10:13:12;;;;;;;3.97;3.70;;;;;;;12.49;100.00;97297.97;5035018;28;20126;-61
2021/10/14 10:15:44;;;;;;;2.75;2.60;;;;;;;11.98;100.00;97301.53;5031261;28;20060;-61
2021/10/14 10:18:43;;;;;;;3.08;2.88;;;;;;;11.99;100.00;97302.38;5047866;28;20080;-61
2021/10/14 10:21:42;;;;;;;3.20;2.97;;;;;;;12.30;100.00;97292.59;5041728;28;20547;-61
2021/10/14 10:24:28;;;;;;;4.43;4.10;;;;;;;11.95;100.00;97303.63;5034146;28;20583;-60
2021/10/14 10:26:59;;;;;;;3.43;3.20;;;;;;;11.97;100.00;97293.72;5042957;28;20077;-61
2021/10/14 10:29:42;;;;;;;4.67;4.33;;;;;;;12.81;100.00;97288.94;5037227;28;20065;-60
2021/10/14 10:32:21;;;;;;;5.27;4.90;;;;;;;12.78;100.00;97289.22;5027490;28;20493;-61
2021/10/14 10:35:09;;;;;;;4.78;4.43;;;;;;;12.51;100.00;97282.75;5041440;28;20060;-61
2021/10/14 10:37:43;;;;;;;4.73;4.40;;;;;;;12.81;100.00;97281.00;5047679;28;20064;-60
2021/10/14 10:40:21;;;;;;;4.80;4.47;;;;;;;13.36;100.00;97277.81;5043287;28;20065;-61
2021/10/14 10:43:03;;;;;;;4.70;4.37;;;;;;;12.77;100.00;97279.63;5040217;28;20525;-61
2021/10/14 10:45:43;;;;;;;5.53;5.13;;;;;;;12.99;100.00;97274.03;5024766;28;20068;-60
2021/10/14 10:48:13;;;;;;;5.18;4.82;;;;;;;13.26;100.00;97272.53;5044666;28;20087;-61
2021/10/14 10:50:52;;;;;;;5.83;5.40;;;;;;;12.93;100.00;97271.09;5037926;28;20084;-61
2021/10/14 10:53:22;;;;;;;5.50;5.10;;;;;;;12.45;100.00;97266.59;5035570;28;20076;-61
2021/10/14 10:55:55;;;;;;;4.28;3.97;;;;;;;12.95;100.00;97266.53;5038369;28;20068;-61
2021/10/14 10:58:47;;;;;;;6.13;5.70;;;;;;;13.07;100.00;97266.25;5035836;28;20060;-62
2021/10/14 11:01:17;;;;;;;5.13;4.77;;;;;;;12.48;100.00;97259.22;5033837;28;20453;-61
2021/10/14 11:03:52;;;;;;;;;;;;;;;12.78;100.00;97260.09;5024190;28;20069;-61
2021/10/14 11:06:22;;;;;;;3.23;3.00;;;;;;;12.83;100.00;97257.88;5026677;28;19959;-61
2021/10/14 11:08:51;;;;;;;6.97;6.43;;;;;;;12.97;100.00;97257.47;5048700;28;20080;-60
2021/10/14 11:11:21;;;;;;;15.40;13.93;;;;;;;13.05;100.00;97254.94;5027740;28;20082;-61
2021/10/14 11:13:53;;;;;;;7.68;7.10;;;;;;;13.11;100.00;97247.41;5021369;28;20068;-61
2021/10/14 11:16:24;;;;;;;8.03;7.40;;;;;;;13.19;100.00;97244.91;5022862;28;20063;-62
2021/10/14 11:18:55;;;;;;;7.83;7.23;;;;;;;13.09;100.00;97244.06;5046338;28;20080;-61
2021/10/14 11:21:37;;;;;;;6.60;6.10;;;;;;;13.58;100.00;97226.28;5024889;28;20054;-60
2021/10/14 11:24:06;;;;;;;6.87;6.37;;;;;;;13.35;100.00;97221.34;5024024;28;20116;-61
2021/10/14 11:26:37;;;;;;;7.43;6.87;;;;;;;13.45;100.00;97224.78;5051423;28;20064;-62
2021/10/14 11:29:10;;;;;;;7.03;6.50;;;;;;;13.74;100.00;97224.69;5050885;28;20056;-61
2021/10/14 11:31:41;;;;;;;7.20;6.67;;;;;;;13.72;100.00;97217.88;5050766;28;20100;-63
2021/10/14 11:34:12;;;;;;;6.43;5.97;;;;;;;13.95;99.07;97213.03;5050590;28;20076;-62
2021/10/14 11:36:49;;;;;;;5.63;5.22;;;;;;;14.01;96.64;97213.28;5046000;28;20065;-61